sensor_id;sensor_type;location;lat;lon;timestamp;P1;durP1;ratioP1;P2;durP2;ratioP2
13222;SDS011;6676;45.192;5.722;2022-12-29T00:00:28;14.80;;;9.65;;
13222;SDS011;6676;45.192;5.722;2022-12-29T00:03:21;13.48;;;9.35;;
13222;SDS011;6676;45.192;5.722;2022-12-29T00:06:15;13.18;;;10.13;;
13222;SDS011;6676;45.192;5.722;2022-12-29T00:09:09;13.28;;;9.45;;
13222;SDS011;6676;45.192;5.722;2022-12-29T00:12:03;13.78;;;9.45;;
13222;SDS011;6676;45.192;5.722;2022-12-29T00:14:58;14.53;;;9.93;;
13222;SDS011;6676;45.192;5.722;2022-12-29T00:18:08;14.28;;;9.43;;
13222;SDS011;6676;45.192;5.722;2022-12-29T00:21:01;12.43;;;9.93;;
13222;SDS011;6676;45.192;5.722;2022-12-29T00:24:14;15.68;;;10.75;;
13222;SDS011;6676;45.192;5.722;2022-12-29T00:27:25;15.25;;;10.75;;
13222;SDS011;6676;45.192;5.722;2022-12-29T00:30:36;12.55;;;9.85;;
13222;SDS011;6676;45.192;5.722;2022-12-29T00:33:49;12.23;;;8.70;;
13222;SDS011;6676;45.192;5.722;2022-12-29T00:37:02;12.93;;;9.98;;
13222;SDS011;6676;45.192;5.722;2022-12-29T00:39:54;13.58;;;9.50;;
13222;SDS011;6676;45.192;5.722;2022-12-29T00:43:06;13.00;;;8.98;;
13222;SDS011;6676;45.192;5.722;2022-12-29T00:46:28;13.13;;;9.60;;
13222;SDS011;6676;45.192;5.722;2022-12-29T00:49:19;12.68;;;9.30;;
13222;SDS011;6676;45.192;5.722;2022-12-29T00:52:21;13.32;;;9.90;;
13222;SDS011;6676;45.192;5.722;2022-12-29T00:55:19;13.90;;;9.85;;
13222;SDS011;6676;45.192;5.722;2022-12-29T00:58:13;12.95;;;9.18;;
13222;SDS011;6676;45.192;5.722;2022-12-29T01:01:05;12.85;;;9.88;;
13222;SDS011;6676;45.192;5.722;2022-12-29T01:03:58;13.20;;;10.00;;
13222;SDS011;6676;45.192;5.722;2022-12-29T01:06:52;12.20;;;9.40;;
13222;SDS011;6676;45.192;5.722;2022-12-29T01:09:43;12.50;;;9.10;;
13222;SDS011;6676;45.192;5.722;2022-12-29T01:15:52;13.32;;;9.20;;
13222;SDS011;6676;45.192;5.722;2022-12-29T01:18:44;11.43;;;8.65;;
13222;SDS011;6676;45.192;5.722;2022-12-29T01:21:35;11.93;;;9.18;;
13222;SDS011;6676;45.192;5.722;2022-12-29T01:24:26;15.53;;;9.15;;
13222;SDS011;6676;45.192;5.722;2022-12-29T01:27:18;14.28;;;9.38;;
13222;SDS011;6676;45.192;5.722;2022-12-29T01:30:10;11.68;;;8.43;;
13222;SDS011;6676;45.192;5.722;2022-12-29T01:33:02;12.23;;;8.93;;
13222;SDS011;6676;45.192;5.722;2022-12-29T01:35:54;11.90;;;9.28;;
13222;SDS011;6676;45.192;5.722;2022-12-29T01:38:47;12.55;;;9.13;;
13222;SDS011;6676;45.192;5.722;2022-12-29T01:41:41;11.22;;;8.55;;
13222;SDS011;6676;45.192;5.722;2022-12-29T01:44:49;13.50;;;9.13;;
13222;SDS011;6676;45.192;5.722;2022-12-29T01:47:43;11.48;;;8.65;;
13222;SDS011;6676;45.192;5.722;2022-12-29T01:50:37;10.00;;;7.65;;
13222;SDS011;6676;45.192;5.722;2022-12-29T01:53:31;10.65;;;7.72;;
13222;SDS011;6676;45.192;5.722;2022-12-29T01:56:24;10.20;;;7.78;;
13222;SDS011;6676;45.192;5.722;2022-12-29T01:59:17;10.72;;;7.55;;
13222;SDS011;6676;45.192;5.722;2022-12-29T02:02:10;9.28;;;7.35;;
13222;SDS011;6676;45.192;5.722;2022-12-29T02:05:04;12.07;;;8.15;;
13222;SDS011;6676;45.192;5.722;2022-12-29T02:07:57;12.43;;;8.53;;
13222;SDS011;6676;45.192;5.722;2022-12-29T02:10:49;12.98;;;8.35;;
13222;SDS011;6676;45.192;5.722;2022-12-29T02:13:42;12.13;;;7.65;;
13222;SDS011;6676;45.192;5.722;2022-12-29T02:16:38;11.93;;;7.83;;
13222;SDS011;6676;45.192;5.722;2022-12-29T02:19:39;10.70;;;7.00;;
13222;SDS011;6676;45.192;5.722;2022-12-29T02:22:47;11.12;;;7.90;;
13222;SDS011;6676;45.192;5.722;2022-12-29T02:25:53;10.63;;;7.22;;
13222;SDS011;6676;45.192;5.722;2022-12-29T02:29:06;10.10;;;7.20;;
13222;SDS011;6676;45.192;5.722;2022-12-29T02:32:07;10.43;;;7.35;;
13222;SDS011;6676;45.192;5.722;2022-12-29T02:35:04;9.68;;;6.80;;
13222;SDS011;6676;45.192;5.722;2022-12-29T02:37:50;8.25;;;6.87;;
13222;SDS011;6676;45.192;5.722;2022-12-29T02:40:43;8.20;;;6.35;;
13222;SDS011;6676;45.192;5.722;2022-12-29T02:43:39;9.08;;;6.50;;
13222;SDS011;6676;45.192;5.722;2022-12-29T02:46:34;8.20;;;6.17;;
13222;SDS011;6676;45.192;5.722;2022-12-29T02:49:30;8.00;;;6.10;;
13222;SDS011;6676;45.192;5.722;2022-12-29T02:52:22;8.93;;;6.10;;
13222;SDS011;6676;45.192;5.722;2022-12-29T02:55:17;7.83;;;6.20;;
13222;SDS011;6676;45.192;5.722;2022-12-29T02:58:16;8.63;;;6.42;;
13222;SDS011;6676;45.192;5.722;2022-12-29T03:01:23;9.03;;;6.45;;
13222;SDS011;6676;45.192;5.722;2022-12-29T03:04:23;8.50;;;5.87;;
13222;SDS011;6676;45.192;5.722;2022-12-29T03:07:17;9.28;;;6.65;;
13222;SDS011;6676;45.192;5.722;2022-12-29T03:10:16;8.65;;;6.58;;
13222;SDS011;6676;45.192;5.722;2022-12-29T03:13:12;8.55;;;6.42;;
13222;SDS011;6676;45.192;5.722;2022-12-29T03:16:29;9.58;;;6.65;;
13222;SDS011;6676;45.192;5.722;2022-12-29T03:19:21;8.93;;;6.53;;
13222;SDS011;6676;45.192;5.722;2022-12-29T03:22:17;10.00;;;7.00;;
13222;SDS011;6676;45.192;5.722;2022-12-29T03:25:22;12.85;;;6.42;;
13222;SDS011;6676;45.192;5.722;2022-12-29T03:28:17;9.68;;;6.58;;
13222;SDS011;6676;45.192;5.722;2022-12-29T03:31:11;13.15;;;6.00;;
13222;SDS011;6676;45.192;5.722;2022-12-29T03:34:04;9.95;;;6.53;;
13222;SDS011;6676;45.192;5.722;2022-12-29T03:36:58;8.30;;;6.60;;
13222;SDS011;6676;45.192;5.722;2022-12-29T03:39:39;9.80;;;6.67;;
13222;SDS011;6676;45.192;5.722;2022-12-29T03:42:31;10.82;;;6.35;;
13222;SDS011;6676;45.192;5.722;2022-12-29T03:45:25;9.45;;;6.30;;
13222;SDS011;6676;45.192;5.722;2022-12-29T03:48:17;9.73;;;6.60;;
13222;SDS011;6676;45.192;5.722;2022-12-29T03:51:10;8.88;;;5.78;;
13222;SDS011;6676;45.192;5.722;2022-12-29T03:54:02;7.35;;;5.62;;
13222;SDS011;6676;45.192;5.722;2022-12-29T03:56:54;7.50;;;5.65;;
13222;SDS011;6676;45.192;5.722;2022-12-29T03:59:47;6.80;;;5.50;;
13222;SDS011;6676;45.192;5.722;2022-12-29T04:02:38;9.20;;;5.97;;
13222;SDS011;6676;45.192;5.722;2022-12-29T04:05:32;10.53;;;5.58;;
13222;SDS011;6676;45.192;5.722;2022-12-29T04:08:24;8.13;;;5.03;;
13222;SDS011;6676;45.192;5.722;2022-12-29T04:11:15;7.10;;;5.17;;
13222;SDS011;6676;45.192;5.722;2022-12-29T04:14:07;6.10;;;4.83;;
13222;SDS011;6676;45.192;5.722;2022-12-29T04:16:59;6.62;;;5.20;;
13222;SDS011;6676;45.192;5.722;2022-12-29T04:19:50;7.03;;;4.83;;
13222;SDS011;6676;45.192;5.722;2022-12-29T04:22:44;7.15;;;5.00;;
13222;SDS011;6676;45.192;5.722;2022-12-29T04:25:35;7.28;;;5.12;;
13222;SDS011;6676;45.192;5.722;2022-12-29T04:28:28;6.92;;;4.80;;
13222;SDS011;6676;45.192;5.722;2022-12-29T04:31:24;7.97;;;4.70;;
13222;SDS011;6676;45.192;5.722;2022-12-29T04:34:16;7.12;;;4.80;;
13222;SDS011;6676;45.192;5.722;2022-12-29T04:37:08;6.55;;;4.80;;
13222;SDS011;6676;45.192;5.722;2022-12-29T04:39:59;6.85;;;4.55;;
13222;SDS011;6676;45.192;5.722;2022-12-29T04:42:51;6.40;;;4.33;;
13222;SDS011;6676;45.192;5.722;2022-12-29T04:45:44;7.47;;;4.78;;
13222;SDS011;6676;45.192;5.722;2022-12-29T04:48:37;8.33;;;4.95;;
13222;SDS011;6676;45.192;5.722;2022-12-29T04:51:33;8.15;;;5.03;;
13222;SDS011;6676;45.192;5.722;2022-12-29T04:54:26;6.42;;;4.78;;
13222;SDS011;6676;45.192;5.722;2022-12-29T04:57:28;5.58;;;4.15;;
13222;SDS011;6676;45.192;5.722;2022-12-29T05:00:21;6.83;;;4.97;;
13222;SDS011;6676;45.192;5.722;2022-12-29T05:03:13;8.78;;;5.95;;
13222;SDS011;6676;45.192;5.722;2022-12-29T05:06:06;8.13;;;5.20;;
13222;SDS011;6676;45.192;5.722;2022-12-29T05:08:58;6.42;;;4.22;;
13222;SDS011;6676;45.192;5.722;2022-12-29T05:11:50;6.70;;;4.47;;
13222;SDS011;6676;45.192;5.722;2022-12-29T05:14:41;6.20;;;4.40;;
13222;SDS011;6676;45.192;5.722;2022-12-29T05:17:32;7.33;;;4.60;;
13222;SDS011;6676;45.192;5.722;2022-12-29T05:20:24;6.75;;;4.45;;
13222;SDS011;6676;45.192;5.722;2022-12-29T05:23:17;6.60;;;4.55;;
13222;SDS011;6676;45.192;5.722;2022-12-29T05:26:16;6.97;;;4.30;;
13222;SDS011;6676;45.192;5.722;2022-12-29T05:29:09;6.42;;;4.15;;
13222;SDS011;6676;45.192;5.722;2022-12-29T05:32:01;5.28;;;4.33;;
13222;SDS011;6676;45.192;5.722;2022-12-29T05:34:55;6.33;;;4.53;;
13222;SDS011;6676;45.192;5.722;2022-12-29T05:37:47;6.25;;;4.45;;
13222;SDS011;6676;45.192;5.722;2022-12-29T05:40:39;7.62;;;5.15;;
13222;SDS011;6676;45.192;5.722;2022-12-29T05:43:33;6.00;;;4.37;;
13222;SDS011;6676;45.192;5.722;2022-12-29T05:46:45;6.53;;;4.72;;
13222;SDS011;6676;45.192;5.722;2022-12-29T05:49:40;6.10;;;4.70;;
13222;SDS011;6676;45.192;5.722;2022-12-29T05:52:41;6.70;;;4.78;;
13222;SDS011;6676;45.192;5.722;2022-12-29T05:55:33;8.23;;;4.30;;
13222;SDS011;6676;45.192;5.722;2022-12-29T05:58:30;6.73;;;4.90;;
13222;SDS011;6676;45.192;5.722;2022-12-29T06:01:24;7.00;;;4.20;;
13222;SDS011;6676;45.192;5.722;2022-12-29T06:04:19;6.58;;;4.65;;
13222;SDS011;6676;45.192;5.722;2022-12-29T06:07:12;6.87;;;4.35;;
13222;SDS011;6676;45.192;5.722;2022-12-29T06:10:08;6.65;;;3.95;;
13222;SDS011;6676;45.192;5.722;2022-12-29T06:15:59;5.05;;;3.37;;
13222;SDS011;6676;45.192;5.722;2022-12-29T06:18:54;6.08;;;3.77;;
13222;SDS011;6676;45.192;5.722;2022-12-29T06:21:47;5.83;;;3.85;;
13222;SDS011;6676;45.192;5.722;2022-12-29T06:24:40;5.80;;;4.45;;
13222;SDS011;6676;45.192;5.722;2022-12-29T06:27:35;9.40;;;4.55;;
13222;SDS011;6676;45.192;5.722;2022-12-29T06:30:30;10.00;;;5.40;;
13222;SDS011;6676;45.192;5.722;2022-12-29T06:33:25;5.75;;;4.30;;
13222;SDS011;6676;45.192;5.722;2022-12-29T06:36:17;6.00;;;3.58;;
13222;SDS011;6676;45.192;5.722;2022-12-29T06:39:11;4.80;;;3.58;;
13222;SDS011;6676;45.192;5.722;2022-12-29T06:42:06;6.70;;;3.37;;
13222;SDS011;6676;45.192;5.722;2022-12-29T06:45:03;5.95;;;4.12;;
13222;SDS011;6676;45.192;5.722;2022-12-29T06:47:56;5.12;;;3.50;;
13222;SDS011;6676;45.192;5.722;2022-12-29T06:50:50;4.97;;;2.90;;
13222;SDS011;6676;45.192;5.722;2022-12-29T06:53:44;4.50;;;3.37;;
13222;SDS011;6676;45.192;5.722;2022-12-29T06:56:40;5.22;;;3.10;;
13222;SDS011;6676;45.192;5.722;2022-12-29T06:59:33;5.75;;;3.20;;
13222;SDS011;6676;45.192;5.722;2022-12-29T07:02:28;4.05;;;2.87;;
13222;SDS011;6676;45.192;5.722;2022-12-29T07:05:22;5.35;;;3.42;;
13222;SDS011;6676;45.192;5.722;2022-12-29T07:08:16;5.33;;;3.67;;
13222;SDS011;6676;45.192;5.722;2022-12-29T07:11:09;5.93;;;3.67;;
13222;SDS011;6676;45.192;5.722;2022-12-29T07:14:04;5.42;;;3.90;;
13222;SDS011;6676;45.192;5.722;2022-12-29T07:16:58;5.50;;;4.55;;
13222;SDS011;6676;45.192;5.722;2022-12-29T07:22:47;6.40;;;4.60;;
13222;SDS011;6676;45.192;5.722;2022-12-29T07:25:40;5.03;;;3.80;;
13222;SDS011;6676;45.192;5.722;2022-12-29T07:31:37;8.50;;;4.80;;
13222;SDS011;6676;45.192;5.722;2022-12-29T07:34:20;6.15;;;4.10;;
13222;SDS011;6676;45.192;5.722;2022-12-29T07:37:11;5.53;;;3.72;;
13222;SDS011;6676;45.192;5.722;2022-12-29T07:40:06;4.35;;;3.58;;
13222;SDS011;6676;45.192;5.722;2022-12-29T07:42:59;5.90;;;3.90;;
13222;SDS011;6676;45.192;5.722;2022-12-29T07:45:52;5.67;;;3.67;;
13222;SDS011;6676;45.192;5.722;2022-12-29T07:48:44;5.95;;;3.62;;
13222;SDS011;6676;45.192;5.722;2022-12-29T07:51:36;4.15;;;3.02;;
13222;SDS011;6676;45.192;5.722;2022-12-29T07:54:27;5.75;;;3.42;;
13222;SDS011;6676;45.192;5.722;2022-12-29T07:57:20;5.70;;;3.30;;
13222;SDS011;6676;45.192;5.722;2022-12-29T08:00:15;5.10;;;3.08;;
13222;SDS011;6676;45.192;5.722;2022-12-29T08:03:07;4.72;;;3.25;;
13222;SDS011;6676;45.192;5.722;2022-12-29T08:05:59;6.53;;;4.80;;
13222;SDS011;6676;45.192;5.722;2022-12-29T08:08:50;4.78;;;2.95;;
13222;SDS011;6676;45.192;5.722;2022-12-29T08:11:42;5.47;;;2.77;;
13222;SDS011;6676;45.192;5.722;2022-12-29T08:14:33;3.98;;;2.35;;
13222;SDS011;6676;45.192;5.722;2022-12-29T08:17:25;4.05;;;2.62;;
13222;SDS011;6676;45.192;5.722;2022-12-29T08:20:16;6.25;;;2.87;;
13222;SDS011;6676;45.192;5.722;2022-12-29T08:23:08;5.95;;;2.90;;
13222;SDS011;6676;45.192;5.722;2022-12-29T08:26:00;4.62;;;2.75;;
13222;SDS011;6676;45.192;5.722;2022-12-29T08:28:52;5.47;;;2.60;;
13222;SDS011;6676;45.192;5.722;2022-12-29T08:31:45;4.05;;;2.60;;
13222;SDS011;6676;45.192;5.722;2022-12-29T08:34:36;3.83;;;2.52;;
13222;SDS011;6676;45.192;5.722;2022-12-29T08:37:28;6.47;;;2.40;;
13222;SDS011;6676;45.192;5.722;2022-12-29T08:40:21;4.78;;;3.25;;
13222;SDS011;6676;45.192;5.722;2022-12-29T08:43:13;4.45;;;2.80;;
13222;SDS011;6676;45.192;5.722;2022-12-29T08:46:06;3.70;;;2.65;;
13222;SDS011;6676;45.192;5.722;2022-12-29T08:48:57;5.35;;;3.25;;
13222;SDS011;6676;45.192;5.722;2022-12-29T08:51:48;6.08;;;2.50;;
13222;SDS011;6676;45.192;5.722;2022-12-29T08:54:40;4.80;;;2.75;;
13222;SDS011;6676;45.192;5.722;2022-12-29T08:57:31;4.25;;;3.10;;
13222;SDS011;6676;45.192;5.722;2022-12-29T09:00:24;5.15;;;2.95;;
13222;SDS011;6676;45.192;5.722;2022-12-29T09:03:16;9.20;;;3.72;;
13222;SDS011;6676;45.192;5.722;2022-12-29T09:06:09;5.03;;;3.15;;
13222;SDS011;6676;45.192;5.722;2022-12-29T09:09:00;4.70;;;3.00;;
13222;SDS011;6676;45.192;5.722;2022-12-29T09:11:52;4.55;;;2.77;;
13222;SDS011;6676;45.192;5.722;2022-12-29T09:14:45;7.50;;;3.40;;
13222;SDS011;6676;45.192;5.722;2022-12-29T09:17:36;6.97;;;3.65;;
13222;SDS011;6676;45.192;5.722;2022-12-29T09:20:34;6.42;;;4.12;;
13222;SDS011;6676;45.192;5.722;2022-12-29T09:26:49;5.90;;;3.55;;
13222;SDS011;6676;45.192;5.722;2022-12-29T09:29:40;4.78;;;3.55;;
13222;SDS011;6676;45.192;5.722;2022-12-29T09:32:31;4.97;;;3.20;;
13222;SDS011;6676;45.192;5.722;2022-12-29T09:35:24;6.50;;;3.60;;
13222;SDS011;6676;45.192;5.722;2022-12-29T09:38:16;4.80;;;3.40;;
13222;SDS011;6676;45.192;5.722;2022-12-29T09:41:11;7.08;;;2.87;;
13222;SDS011;6676;45.192;5.722;2022-12-29T09:44:12;4.28;;;3.05;;
13222;SDS011;6676;45.192;5.722;2022-12-29T09:47:10;4.55;;;3.47;;
13222;SDS011;6676;45.192;5.722;2022-12-29T09:50:05;3.65;;;2.70;;
13222;SDS011;6676;45.192;5.722;2022-12-29T09:53:01;6.05;;;3.33;;
13222;SDS011;6676;45.192;5.722;2022-12-29T09:55:55;5.50;;;3.30;;
13222;SDS011;6676;45.192;5.722;2022-12-29T09:58:49;5.62;;;3.83;;
13222;SDS011;6676;45.192;5.722;2022-12-29T10:01:44;5.00;;;3.45;;
13222;SDS011;6676;45.192;5.722;2022-12-29T10:04:38;6.45;;;3.87;;
13222;SDS011;6676;45.192;5.722;2022-12-29T10:07:36;6.60;;;3.70;;
13222;SDS011;6676;45.192;5.722;2022-12-29T10:10:31;5.53;;;3.62;;
13222;SDS011;6676;45.192;5.722;2022-12-29T10:13:32;5.10;;;4.17;;
13222;SDS011;6676;45.192;5.722;2022-12-29T10:16:30;5.85;;;4.10;;
13222;SDS011;6676;45.192;5.722;2022-12-29T10:19:36;8.60;;;3.47;;
13222;SDS011;6676;45.192;5.722;2022-12-29T10:22:38;4.58;;;3.60;;
13222;SDS011;6676;45.192;5.722;2022-12-29T10:25:35;7.08;;;3.92;;
13222;SDS011;6676;45.192;5.722;2022-12-29T10:28:31;6.50;;;3.30;;
13222;SDS011;6676;45.192;5.722;2022-12-29T10:31:30;5.35;;;3.75;;
13222;SDS011;6676;45.192;5.722;2022-12-29T10:34:22;5.53;;;3.60;;
13222;SDS011;6676;45.192;5.722;2022-12-29T10:37:09;7.25;;;3.83;;
13222;SDS011;6676;45.192;5.722;2022-12-29T10:43:07;5.12;;;3.50;;
13222;SDS011;6676;45.192;5.722;2022-12-29T10:46:05;9.03;;;3.25;;
13222;SDS011;6676;45.192;5.722;2022-12-29T10:48:59;5.50;;;3.05;;
13222;SDS011;6676;45.192;5.722;2022-12-29T10:51:51;6.92;;;3.47;;
13222;SDS011;6676;45.192;5.722;2022-12-29T10:54:46;5.08;;;3.17;;
13222;SDS011;6676;45.192;5.722;2022-12-29T10:57:40;5.72;;;3.42;;
13222;SDS011;6676;45.192;5.722;2022-12-29T11:00:33;4.72;;;3.30;;
13222;SDS011;6676;45.192;5.722;2022-12-29T11:06:41;5.95;;;2.95;;
13222;SDS011;6676;45.192;5.722;2022-12-29T11:09:34;4.12;;;3.00;;
13222;SDS011;6676;45.192;5.722;2022-12-29T11:12:30;4.85;;;3.15;;
13222;SDS011;6676;45.192;5.722;2022-12-29T11:15:22;4.42;;;3.17;;
13222;SDS011;6676;45.192;5.722;2022-12-29T11:18:21;3.77;;;3.05;;
13222;SDS011;6676;45.192;5.722;2022-12-29T11:21:25;7.92;;;3.52;;
13222;SDS011;6676;45.192;5.722;2022-12-29T11:24:20;5.20;;;3.40;;
13222;SDS011;6676;45.192;5.722;2022-12-29T11:27:15;4.85;;;3.10;;
13222;SDS011;6676;45.192;5.722;2022-12-29T11:30:13;6.33;;;3.55;;
13222;SDS011;6676;45.192;5.722;2022-12-29T11:33:02;5.80;;;3.87;;
13222;SDS011;6676;45.192;5.722;2022-12-29T11:35:57;9.43;;;4.33;;
13222;SDS011;6676;45.192;5.722;2022-12-29T11:38:51;6.35;;;3.70;;
13222;SDS011;6676;45.192;5.722;2022-12-29T11:41:46;5.87;;;3.20;;
13222;SDS011;6676;45.192;5.722;2022-12-29T11:44:43;9.77;;;3.40;;
13222;SDS011;6676;45.192;5.722;2022-12-29T11:47:36;6.87;;;3.15;;
13222;SDS011;6676;45.192;5.722;2022-12-29T11:50:28;4.65;;;2.83;;
13222;SDS011;6676;45.192;5.722;2022-12-29T11:53:22;4.80;;;3.22;;
13222;SDS011;6676;45.192;5.722;2022-12-29T11:56:16;5.22;;;3.30;;
13222;SDS011;6676;45.192;5.722;2022-12-29T11:59:36;5.35;;;2.70;;
13222;SDS011;6676;45.192;5.722;2022-12-29T12:05:37;3.98;;;2.77;;
13222;SDS011;6676;45.192;5.722;2022-12-29T12:08:33;6.95;;;3.08;;
13222;SDS011;6676;45.192;5.722;2022-12-29T12:11:16;7.17;;;2.90;;
13222;SDS011;6676;45.192;5.722;2022-12-29T12:14:11;5.85;;;2.75;;
13222;SDS011;6676;45.192;5.722;2022-12-29T12:17:14;7.97;;;3.47;;
13222;SDS011;6676;45.192;5.722;2022-12-29T12:20:14;5.33;;;3.15;;
13222;SDS011;6676;45.192;5.722;2022-12-29T12:23:14;5.45;;;3.00;;
13222;SDS011;6676;45.192;5.722;2022-12-29T12:26:11;5.25;;;3.30;;
13222;SDS011;6676;45.192;5.722;2022-12-29T12:29:05;5.87;;;3.17;;
13222;SDS011;6676;45.192;5.722;2022-12-29T12:32:01;5.85;;;3.20;;
13222;SDS011;6676;45.192;5.722;2022-12-29T12:34:56;6.78;;;3.02;;
13222;SDS011;6676;45.192;5.722;2022-12-29T12:37:50;6.40;;;3.30;;
13222;SDS011;6676;45.192;5.722;2022-12-29T12:40:49;7.03;;;4.05;;
13222;SDS011;6676;45.192;5.722;2022-12-29T12:43:54;5.40;;;3.40;;
13222;SDS011;6676;45.192;5.722;2022-12-29T12:47:00;5.67;;;3.72;;
13222;SDS011;6676;45.192;5.722;2022-12-29T12:50:20;6.60;;;3.70;;
13222;SDS011;6676;45.192;5.722;2022-12-29T12:53:21;9.55;;;3.33;;
13222;SDS011;6676;45.192;5.722;2022-12-29T12:56:52;5.75;;;3.30;;
13222;SDS011;6676;45.192;5.722;2022-12-29T12:59:50;5.58;;;2.80;;
13222;SDS011;6676;45.192;5.722;2022-12-29T13:02:48;5.35;;;3.05;;
13222;SDS011;6676;45.192;5.722;2022-12-29T13:05:47;4.70;;;2.70;;
13222;SDS011;6676;45.192;5.722;2022-12-29T13:08:59;5.95;;;2.67;;
13222;SDS011;6676;45.192;5.722;2022-12-29T13:11:59;4.70;;;2.98;;
13222;SDS011;6676;45.192;5.722;2022-12-29T13:15:02;4.05;;;2.60;;
13222;SDS011;6676;45.192;5.722;2022-12-29T13:20:50;3.83;;;2.55;;
13222;SDS011;6676;45.192;5.722;2022-12-29T13:23:44;4.30;;;2.50;;
13222;SDS011;6676;45.192;5.722;2022-12-29T13:26:29;5.60;;;3.02;;
13222;SDS011;6676;45.192;5.722;2022-12-29T13:29:23;5.12;;;2.50;;
13222;SDS011;6676;45.192;5.722;2022-12-29T13:32:22;3.35;;;2.30;;
13222;SDS011;6676;45.192;5.722;2022-12-29T13:35:21;4.03;;;2.60;;
13222;SDS011;6676;45.192;5.722;2022-12-29T13:38:18;3.85;;;2.60;;
13222;SDS011;6676;45.192;5.722;2022-12-29T13:41:12;4.85;;;2.72;;
13222;SDS011;6676;45.192;5.722;2022-12-29T13:44:06;4.92;;;2.80;;
13222;SDS011;6676;45.192;5.722;2022-12-29T13:47:02;4.67;;;2.80;;
13222;SDS011;6676;45.192;5.722;2022-12-29T13:49:57;3.83;;;2.60;;
13222;SDS011;6676;45.192;5.722;2022-12-29T13:52:51;6.40;;;2.95;;
13222;SDS011;6676;45.192;5.722;2022-12-29T13:55:48;8.18;;;3.25;;
13222;SDS011;6676;45.192;5.722;2022-12-29T13:58:43;6.87;;;3.00;;
13222;SDS011;6676;45.192;5.722;2022-12-29T14:01:37;5.12;;;3.12;;
13222;SDS011;6676;45.192;5.722;2022-12-29T14:04:31;6.28;;;3.42;;
13222;SDS011;6676;45.192;5.722;2022-12-29T14:07:23;5.05;;;3.08;;
13222;SDS011;6676;45.192;5.722;2022-12-29T14:10:25;6.35;;;2.87;;
13222;SDS011;6676;45.192;5.722;2022-12-29T14:13:18;5.72;;;3.02;;
13222;SDS011;6676;45.192;5.722;2022-12-29T14:16:24;4.92;;;3.00;;
13222;SDS011;6676;45.192;5.722;2022-12-29T14:19:19;7.70;;;3.58;;
13222;SDS011;6676;45.192;5.722;2022-12-29T14:22:15;6.47;;;3.20;;
13222;SDS011;6676;45.192;5.722;2022-12-29T14:28:46;6.12;;;3.35;;
13222;SDS011;6676;45.192;5.722;2022-12-29T14:31:38;6.67;;;3.17;;
13222;SDS011;6676;45.192;5.722;2022-12-29T14:34:30;4.78;;;3.40;;
13222;SDS011;6676;45.192;5.722;2022-12-29T14:37:33;5.17;;;3.17;;
13222;SDS011;6676;45.192;5.722;2022-12-29T14:40:27;6.00;;;3.27;;
13222;SDS011;6676;45.192;5.722;2022-12-29T14:43:20;7.83;;;3.85;;
13222;SDS011;6676;45.192;5.722;2022-12-29T14:46:14;7.05;;;3.27;;
13222;SDS011;6676;45.192;5.722;2022-12-29T14:49:08;7.78;;;3.85;;
13222;SDS011;6676;45.192;5.722;2022-12-29T14:52:06;7.40;;;4.58;;
13222;SDS011;6676;45.192;5.722;2022-12-29T14:58:12;7.12;;;4.00;;
13222;SDS011;6676;45.192;5.722;2022-12-29T15:01:05;5.28;;;3.40;;
13222;SDS011;6676;45.192;5.722;2022-12-29T15:04:06;6.03;;;2.92;;
13222;SDS011;6676;45.192;5.722;2022-12-29T15:07:06;7.70;;;3.50;;
13222;SDS011;6676;45.192;5.722;2022-12-29T15:10:03;7.25;;;2.80;;
13222;SDS011;6676;45.192;5.722;2022-12-29T15:13:00;17.73;;;3.52;;
13222;SDS011;6676;45.192;5.722;2022-12-29T15:15:50;6.22;;;3.40;;
13222;SDS011;6676;45.192;5.722;2022-12-29T15:18:41;6.05;;;2.85;;
13222;SDS011;6676;45.192;5.722;2022-12-29T15:21:33;5.97;;;2.55;;
13222;SDS011;6676;45.192;5.722;2022-12-29T15:24:25;5.87;;;2.27;;
13222;SDS011;6676;45.192;5.722;2022-12-29T15:27:19;5.53;;;3.52;;
13222;SDS011;6676;45.192;5.722;2022-12-29T15:30:12;5.45;;;2.50;;
13222;SDS011;6676;45.192;5.722;2022-12-29T15:33:09;5.62;;;2.60;;
13222;SDS011;6676;45.192;5.722;2022-12-29T15:36:10;6.33;;;3.17;;
13222;SDS011;6676;45.192;5.722;2022-12-29T15:39:17;6.55;;;3.47;;
13222;SDS011;6676;45.192;5.722;2022-12-29T15:42:13;5.35;;;3.42;;
13222;SDS011;6676;45.192;5.722;2022-12-29T15:45:09;8.05;;;3.67;;
13222;SDS011;6676;45.192;5.722;2022-12-29T15:48:02;5.90;;;2.98;;
13222;SDS011;6676;45.192;5.722;2022-12-29T15:50:56;8.68;;;3.40;;
13222;SDS011;6676;45.192;5.722;2022-12-29T15:53:48;5.50;;;3.40;;
13222;SDS011;6676;45.192;5.722;2022-12-29T15:56:41;5.67;;;3.92;;
13222;SDS011;6676;45.192;5.722;2022-12-29T15:59:33;12.90;;;9.58;;
13222;SDS011;6676;45.192;5.722;2022-12-29T16:02:25;8.55;;;4.97;;
13222;SDS011;6676;45.192;5.722;2022-12-29T16:05:18;19.65;;;15.08;;
13222;SDS011;6676;45.192;5.722;2022-12-29T16:08:20;8.78;;;5.80;;
13222;SDS011;6676;45.192;5.722;2022-12-29T16:11:19;9.35;;;4.25;;
13222;SDS011;6676;45.192;5.722;2022-12-29T16:14:14;12.10;;;4.20;;
13222;SDS011;6676;45.192;5.722;2022-12-29T16:16:55;7.03;;;4.10;;
13222;SDS011;6676;45.192;5.722;2022-12-29T16:19:49;7.75;;;3.42;;
13222;SDS011;6676;45.192;5.722;2022-12-29T16:22:45;7.17;;;4.28;;
13222;SDS011;6676;45.192;5.722;2022-12-29T16:25:37;7.35;;;4.45;;
13222;SDS011;6676;45.192;5.722;2022-12-29T16:28:34;6.97;;;4.30;;
13222;SDS011;6676;45.192;5.722;2022-12-29T16:31:31;6.67;;;3.60;;
13222;SDS011;6676;45.192;5.722;2022-12-29T16:34:25;8.80;;;3.80;;
13222;SDS011;6676;45.192;5.722;2022-12-29T16:37:27;8.03;;;3.75;;
13222;SDS011;6676;45.192;5.722;2022-12-29T16:40:23;10.45;;;4.10;;
13222;SDS011;6676;45.192;5.722;2022-12-29T16:43:20;7.40;;;4.17;;
13222;SDS011;6676;45.192;5.722;2022-12-29T16:46:18;9.73;;;4.35;;
13222;SDS011;6676;45.192;5.722;2022-12-29T16:49:15;10.30;;;4.87;;
13222;SDS011;6676;45.192;5.722;2022-12-29T16:52:12;5.87;;;3.50;;
13222;SDS011;6676;45.192;5.722;2022-12-29T16:55:14;7.83;;;4.10;;
13222;SDS011;6676;45.192;5.722;2022-12-29T16:58:11;8.20;;;4.45;;
13222;SDS011;6676;45.192;5.722;2022-12-29T17:01:04;7.37;;;3.90;;
13222;SDS011;6676;45.192;5.722;2022-12-29T17:03:58;12.98;;;4.05;;
13222;SDS011;6676;45.192;5.722;2022-12-29T17:06:52;10.53;;;4.35;;
13222;SDS011;6676;45.192;5.722;2022-12-29T17:09:43;8.20;;;4.70;;
13222;SDS011;6676;45.192;5.722;2022-12-29T17:12:34;10.38;;;4.33;;
13222;SDS011;6676;45.192;5.722;2022-12-29T17:15:27;8.93;;;4.80;;
13222;SDS011;6676;45.192;5.722;2022-12-29T17:18:21;9.85;;;5.00;;
13222;SDS011;6676;45.192;5.722;2022-12-29T17:21:13;9.13;;;5.90;;
13222;SDS011;6676;45.192;5.722;2022-12-29T17:24:07;8.55;;;4.30;;
13222;SDS011;6676;45.192;5.722;2022-12-29T17:29:53;6.58;;;3.80;;
13222;SDS011;6676;45.192;5.722;2022-12-29T17:32:48;6.67;;;4.28;;
13222;SDS011;6676;45.192;5.722;2022-12-29T17:35:41;8.95;;;4.50;;
13222;SDS011;6676;45.192;5.722;2022-12-29T17:38:34;7.17;;;4.45;;
13222;SDS011;6676;45.192;5.722;2022-12-29T17:41:26;7.67;;;4.72;;
13222;SDS011;6676;45.192;5.722;2022-12-29T17:44:18;7.37;;;4.35;;
13222;SDS011;6676;45.192;5.722;2022-12-29T17:47:10;10.00;;;5.20;;
13222;SDS011;6676;45.192;5.722;2022-12-29T17:50:03;9.08;;;5.65;;
13222;SDS011;6676;45.192;5.722;2022-12-29T17:52:59;9.45;;;5.20;;
13222;SDS011;6676;45.192;5.722;2022-12-29T17:55:52;6.10;;;4.83;;
13222;SDS011;6676;45.192;5.722;2022-12-29T17:58:44;9.83;;;5.22;;
13222;SDS011;6676;45.192;5.722;2022-12-29T18:01:37;7.58;;;4.37;;
13222;SDS011;6676;45.192;5.722;2022-12-29T18:04:29;8.55;;;4.67;;
13222;SDS011;6676;45.192;5.722;2022-12-29T18:07:21;12.98;;;5.50;;
13222;SDS011;6676;45.192;5.722;2022-12-29T18:10:16;14.05;;;5.95;;
13222;SDS011;6676;45.192;5.722;2022-12-29T18:13:10;11.35;;;5.65;;
13222;SDS011;6676;45.192;5.722;2022-12-29T18:16:06;10.32;;;4.40;;
13222;SDS011;6676;45.192;5.722;2022-12-29T18:19:00;15.63;;;7.42;;
13222;SDS011;6676;45.192;5.722;2022-12-29T18:21:56;14.20;;;6.53;;
13222;SDS011;6676;45.192;5.722;2022-12-29T18:27:53;15.40;;;8.35;;